Time;durP1;ratioP1;P1;durP2;ratioP2;P2;SDS_P1;SDS_P2;PMS_P1;PMS_P2;Temp;Humidity;BMP_temperature;BMP_pressure;BME280_temperature;BME280_humidity;BME280_pressure;Samples;Min_cycle;Max_cycle;Signal;HPM_P1;HPM_P2
2021/10/07 00:01:50;;;;;;;1.95;1.52;;;9.80;99.90;;;;;;5038427;28;20029;-71
2021/10/07 00:04:16;;;;;;;1.40;1.30;;;9.90;99.90;;;;;;5039599;28;20037;-71
2021/10/07 00:06:41;;;;;;;2.05;1.85;;;9.90;99.90;;;;;;5036818;28;20029;-71
2021/10/07 00:09:07;;;;;;;0.77;0.77;;;9.90;99.90;;;;;;5040877;28;20476;-71
2021/10/07 00:11:34;;;;;;;12.32;2.65;;;10.00;99.90;;;;;;5032988;28;20083;-70
2021/10/07 00:14:01;;;;;;;1.25;1.17;;;10.00;99.90;;;;;;5034153;28;20037;-71
2021/10/07 00:16:26;;;;;;;5.00;1.88;;;10.00;99.90;;;;;;5040065;28;20065;-70
2021/10/07 00:18:52;;;;;;;0.82;0.82;;;10.00;99.90;;;;;;5035680;28;20065;-71
2021/10/07 00:21:18;;;;;;;1.75;1.40;;;10.00;99.90;;;;;;5038130;28;20038;-70
2021/10/07 00:26:35;;;;;;;1.73;1.63;;;9.90;99.90;;;;;;5030926;28;20063;-70
2021/10/07 00:29:09;;;;;;;7.13;1.70;;;9.80;99.90;;;;;;5028601;28;20092;-70
2021/10/07 00:31:38;;;;;;;2.47;1.58;;;9.80;99.90;;;;;;5036462;28;20026;-70
2021/10/07 00:35:15;;;;;;;4.03;1.92;;;9.80;99.90;;;;;;5029409;28;20033;-70
2021/10/07 00:39:26;;;;;;;1.45;1.35;;;9.70;99.90;;;;;;5035606;28;20022;-70
2021/10/07 00:41:52;;;;;;;1.10;0.95;;;9.60;99.90;;;;;;5030480;28;20029;-71
2021/10/07 00:44:19;;;;;;;3.17;0.80;;;9.60;99.90;;;;;;5033567;28;20492;-70
2021/10/07 00:46:59;;;;;;;1.75;1.65;;;9.50;99.90;;;;;;5033578;28;20017;-70
2021/10/07 00:49:25;;;;;;;5.60;2.95;;;9.50;99.90;;;;;;5035204;28;20643;-70
2021/10/07 00:51:51;;;;;;;2.20;1.67;;;9.50;99.90;;;;;;5028918;28;20040;-70
2021/10/07 00:54:18;;;;;;;1.38;0.93;;;9.50;99.90;;;;;;5044551;28;20419;-70
2021/10/07 00:56:45;;;;;;;1.58;1.38;;;9.40;99.90;;;;;;5027557;28;20040;-70
2021/10/07 00:59:11;;;;;;;1.17;1.13;;;9.50;99.90;;;;;;5030995;28;20045;-70
2021/10/07 01:01:38;;;;;;;2.65;1.67;;;9.40;99.90;;;;;;5032963;28;20407;-71
2021/10/07 01:04:04;;;;;;;1.30;1.20;;;9.40;99.90;;;;;;5036215;28;20030;-70
2021/10/07 01:06:30;;;;;;;7.00;1.77;;;9.40;99.90;;;;;;5038227;28;20029;-71
2021/10/07 01:08:56;;;;;;;1.65;1.50;;;9.30;99.90;;;;;;5040596;28;20633;-70
2021/10/07 01:11:21;;;;;;;1.42;1.33;;;9.30;99.90;;;;;;5049425;28;20472;-70
2021/10/07 01:13:47;;;;;;;0.98;0.98;;;9.30;99.90;;;;;;5032842;28;20053;-71
2021/10/07 01:16:13;;;;;;;2.97;1.70;;;9.20;99.90;;;;;;5043482;28;20127;-70
2021/10/07 01:18:38;;;;;;;2.05;1.02;;;9.30;99.90;;;;;;5043262;28;20116;-69
2021/10/07 01:21:08;;;;;;;1.90;1.45;;;9.20;99.90;;;;;;5036623;28;20037;-70
2021/10/07 01:23:34;;;;;;;0.55;0.55;;;9.20;99.90;;;;;;5043482;28;20033;-70
2021/10/07 01:25:59;;;;;;;0.98;0.98;;;9.20;99.90;;;;;;5043414;28;20329;-70
2021/10/07 01:28:25;;;;;;;1.50;1.25;;;9.20;99.90;;;;;;5036069;28;20036;-70
2021/10/07 01:30:50;;;;;;;3.13;2.17;;;9.10;99.90;;;;;;5039736;28;20108;-70
2021/10/07 01:33:16;;;;;;;1.58;1.05;;;9.10;99.90;;;;;;5034372;28;20380;-70
2021/10/07 01:35:41;;;;;;;0.98;0.98;;;9.10;99.90;;;;;;5033679;28;20025;-70
2021/10/07 01:38:07;;;;;;;2.92;1.55;;;9.10;99.90;;;;;;5040566;28;20725;-70
2021/10/07 01:40:32;;;;;;;0.93;0.90;;;9.10;99.90;;;;;;5038668;28;20045;-70
2021/10/07 01:42:58;;;;;;;2.65;0.77;;;9.10;99.90;;;;;;5038377;28;20021;-70
2021/10/07 01:45:23;;;;;;;0.30;0.30;;;9.10;99.90;;;;;;5036304;28;20029;-70
2021/10/07 01:47:49;;;;;;;2.92;0.95;;;9.10;99.90;;;;;;5035243;28;20472;-71
2021/10/07 01:50:15;;;;;;;0.70;0.70;;;9.10;99.90;;;;;;5033603;28;20029;-69
2021/10/07 01:52:41;;;;;;;0.45;0.45;;;9.10;99.90;;;;;;5034330;28;20404;-69
2021/10/07 01:55:09;;;;;;;1.73;1.25;;;9.00;99.90;;;;;;5040390;28;20033;-71
2021/10/07 01:57:35;;;;;;;1.35;1.23;;;9.00;99.90;;;;;;5042519;28;20484;-70
2021/10/07 02:00:01;;;;;;;0.50;0.50;;;9.00;99.90;;;;;;5037319;28;20025;-70
2021/10/07 02:02:26;;;;;;;4.25;2.13;;;9.00;99.90;;;;;;5041098;28;20703;-70
2021/10/07 02:04:52;;;;;;;1.23;0.93;;;9.00;99.90;;;;;;5042240;28;20068;-70
2021/10/07 02:07:17;;;;;;;1.05;1.05;;;8.90;99.90;;;;;;5042776;28;20407;-70
2021/10/07 02:09:43;;;;;;;1.10;1.00;;;8.90;99.90;;;;;;5033405;28;20041;-70
2021/10/07 02:12:08;;;;;;;1.63;1.52;;;8.90;99.90;;;;;;5040685;28;20108;-70
2021/10/07 02:14:34;;;;;;;0.98;0.95;;;8.90;99.90;;;;;;5032285;28;20391;-70
2021/10/07 02:16:59;;;;;;;1.05;0.93;;;8.90;99.90;;;;;;5037669;28;20431;-70
2021/10/07 02:19:25;;;;;;;5.90;1.75;;;8.80;99.90;;;;;;5041572;28;20049;-70
2021/10/07 02:21:50;;;;;;;1.90;1.67;;;8.80;99.90;;;;;;5039257;28;20017;-70
2021/10/07 02:24:16;;;;;;;0.73;0.73;;;8.80;99.90;;;;;;5033106;28;20083;-70
2021/10/07 02:26:41;;;;;;;1.67;1.13;;;8.80;99.90;;;;;;5041121;28;20407;-70
2021/10/07 02:29:07;;;;;;;3.40;2.28;;;8.80;99.90;;;;;;5031858;28;20033;-70
2021/10/07 02:31:33;;;;;;;2.45;1.90;;;8.80;99.90;;;;;;5032334;28;20028;-70
2021/10/07 02:33:58;;;;;;;13.48;1.20;;;8.80;99.90;;;;;;5031450;28;20033;-70
2021/10/07 02:36:24;;;;;;;2.40;1.20;;;8.70;99.90;;;;;;5033959;28;20672;-70
2021/10/07 02:38:50;;;;;;;0.40;0.40;;;8.70;99.90;;;;;;5033870;28;20025;-70
2021/10/07 02:41:15;;;;;;;0.40;0.40;;;8.70;99.90;;;;;;5048666;28;20029;-71
2021/10/07 02:43:41;;;;;;;5.35;0.73;;;8.60;99.90;;;;;;5035408;28;20029;-70
2021/10/07 02:46:06;;;;;;;1.92;1.42;;;8.60;99.90;;;;;;5030199;28;20053;-70
2021/10/07 02:48:32;;;;;;;0.50;0.50;;;8.60;99.90;;;;;;5032893;28;20040;-70
2021/10/07 02:50:57;;;;;;;2.08;1.60;;;8.60;99.90;;;;;;5030862;28;20041;-70
2021/10/07 02:53:23;;;;;;;2.83;1.10;;;8.60;99.90;;;;;;5031562;28;20559;-71
2021/10/07 02:55:48;;;;;;;1.45;0.65;;;8.60;99.90;;;;;;5030198;28;20176;-71
2021/10/07 02:58:14;;;;;;;8.35;2.50;;;8.60;99.90;;;;;;5030233;28;20033;-71
2021/10/07 03:00:40;;;;;;;1.20;1.10;;;8.60;99.90;;;;;;5033244;28;20033;-71
2021/10/07 03:03:05;;;;;;;0.52;0.52;;;8.60;99.90;;;;;;5044054;28;20033;-71
2021/10/07 03:05:31;;;;;;;0.57;0.55;;;8.50;99.90;;;;;;5034819;28;20387;-71
2021/10/07 03:07:56;;;;;;;1.63;1.15;;;8.50;99.90;;;;;;5035066;28;20245;-72
2021/10/07 03:10:23;;;;;;;1.45;0.95;;;8.50;99.90;;;;;;5041993;28;20017;-72
2021/10/07 03:12:49;;;;;;;1.17;1.13;;;8.50;99.90;;;;;;5037098;28;20404;-72
2021/10/07 03:15:15;;;;;;;2.78;1.50;;;8.50;99.90;;;;;;5036858;28;20025;-71
2021/10/07 03:17:40;;;;;;;0.77;0.77;;;8.50;99.90;;;;;;5035422;28;20026;-71
2021/10/07 03:20:06;;;;;;;1.13;1.08;;;8.50;99.90;;;;;;5031566;28;20041;-71
2021/10/07 03:22:32;;;;;;;2.83;1.58;;;8.40;99.90;;;;;;5037858;28;20127;-71
2021/10/07 03:24:57;;;;;;;2.47;0.75;;;8.40;99.90;;;;;;5033737;28;20108;-71
2021/10/07 03:27:23;;;;;;;1.40;0.90;;;8.40;99.90;;;;;;5039211;28;20078;-71
2021/10/07 03:29:48;;;;;;;0.85;0.82;;;8.40;99.90;;;;;;5031223;28;20126;-71
2021/10/07 03:32:14;;;;;;;0.85;0.68;;;8.40;99.90;;;;;;5042247;28;20086;-71
2021/10/07 03:34:39;;;;;;;0.95;0.90;;;8.30;99.90;;;;;;5041366;28;20037;-71
2021/10/07 03:37:05;;;;;;;1.27;1.17;;;8.30;99.90;;;;;;5031728;28;20040;-71
2021/10/07 03:39:30;;;;;;;1.30;0.80;;;8.30;99.90;;;;;;5033935;28;20055;-71
2021/10/07 03:41:56;;;;;;;1.25;0.90;;;8.30;99.90;;;;;;5035968;28;20025;-70
2021/10/07 03:44:21;;;;;;;0.43;0.30;;;8.30;99.90;;;;;;5034519;28;20131;-70
2021/10/07 03:46:47;;;;;;;6.38;1.77;;;8.30;99.90;;;;;;5034824;28;20037;-70
2021/10/07 03:49:13;;;;;;;0.40;0.40;;;8.30;99.90;;;;;;5037432;28;20029;-71
2021/10/07 03:51:38;;;;;;;0.65;0.65;;;8.30;99.90;;;;;;5033693;28;20052;-72
2021/10/07 03:54:04;;;;;;;0.63;0.50;;;8.30;99.90;;;;;;5035514;28;20060;-71
2021/10/07 03:56:29;;;;;;;2.30;0.98;;;8.20;99.90;;;;;;5037246;28;20033;-71
2021/10/07 03:58:55;;;;;;;2.05;1.50;;;8.20;99.90;;;;;;5036049;28;20815;-70
2021/10/07 04:01:20;;;;;;;3.03;2.03;;;8.20;99.90;;;;;;5029500;28;20033;-71
2021/10/07 04:03:45;;;;;;;1.52;0.98;;;8.20;99.90;;;;;;5037623;28;20025;-71
2021/10/07 04:06:11;;;;;;;2.28;1.65;;;8.20;99.90;;;;;;5037222;28;20033;-71
2021/10/07 04:08:37;;;;;;;1.50;1.17;;;8.20;99.90;;;;;;5044179;28;20686;-71
2021/10/07 04:11:02;;;;;;;1.15;1.05;;;8.10;99.90;;;;;;5031259;28;20033;-70
2021/10/07 04:13:28;;;;;;;3.55;1.67;;;8.20;99.90;;;;;;5034945;28;20083;-71
2021/10/07 04:15:53;;;;;;;0.80;0.80;;;8.20;99.90;;;;;;5033640;28;20037;-71
2021/10/07 04:18:20;;;;;;;1.70;1.15;;;8.20;99.90;;;;;;5038989;28;20052;-71
2021/10/07 04:20:48;;;;;;;1.27;0.88;;;8.10;99.90;;;;;;5032364;28;20056;-71
2021/10/07 04:23:14;;;;;;;0.88;0.75;;;8.10;99.90;;;;;;5040948;28;20025;-71
2021/10/07 04:25:40;;;;;;;0.38;0.38;;;8.10;99.90;;;;;;5035989;28;20029;-71
2021/10/07 04:28:06;;;;;;;1.02;0.93;;;8.00;99.90;;;;;;5042523;28;20018;-70
2021/10/07 04:30:36;;;;;;;0.70;0.70;;;8.10;99.90;;;;;;5030240;28;20018;-71
2021/10/07 04:33:04;;;;;;;0.40;0.40;;;8.00;99.90;;;;;;5031299;28;20040;-71
2021/10/07 04:35:30;;;;;;;1.17;1.08;;;8.00;99.90;;;;;;5036507;28;20465;-71
2021/10/07 04:37:56;;;;;;;0.60;0.60;;;8.10;99.90;;;;;;5033312;28;20162;-71
2021/10/07 04:40:22;;;;;;;0.43;0.35;;;8.00;99.90;;;;;;5033322;28;20036;-71
2021/10/07 04:42:47;;;;;;;0.80;0.80;;;8.00;99.90;;;;;;5034184;28;20041;-71
2021/10/07 04:45:12;;;;;;;1.20;1.10;;;7.90;99.90;;;;;;5028597;28;20025;-71
2021/10/07 04:47:38;;;;;;;2.83;1.75;;;8.00;99.90;;;;;;5038594;28;20108;-71
2021/10/07 04:50:06;;;;;;;1.02;0.75;;;8.00;99.90;;;;;;5029441;28;20384;-71
2021/10/07 04:52:31;;;;;;;0.30;0.30;;;8.00;99.90;;;;;;5031308;28;20032;-71
2021/10/07 04:54:57;;;;;;;0.65;0.52;;;7.90;99.90;;;;;;5037478;28;20033;-70
2021/10/07 04:57:22;;;;;;;3.28;1.80;;;7.90;99.90;;;;;;5035971;28;20492;-71
2021/10/07 04:59:48;;;;;;;3.70;1.80;;;7.90;99.90;;;;;;5036592;28;20102;-71
2021/10/07 05:02:13;;;;;;;1.80;1.30;;;7.90;99.90;;;;;;5036419;28;20033;-71
2021/10/07 05:04:39;;;;;;;2.55;1.00;;;7.90;99.90;;;;;;5030560;28;20071;-71
2021/10/07 05:07:04;;;;;;;1.65;0.75;;;7.90;99.90;;;;;;5035649;28;20029;-70
2021/10/07 05:09:30;;;;;;;0.85;0.85;;;7.90;99.90;;;;;;5030837;28;20029;-73
2021/10/07 05:11:56;;;;;;;0.73;0.73;;;7.90;99.90;;;;;;5030280;28;20108;-73
2021/10/07 05:14:21;;;;;;;1.00;0.93;;;7.90;99.90;;;;;;5029904;28;20034;-72
2021/10/07 05:16:46;;;;;;;1.40;1.30;;;7.80;99.90;;;;;;5033981;28;20542;-71
2021/10/07 05:19:12;;;;;;;0.45;0.45;;;7.80;99.90;;;;;;5032613;28;20099;-73
2021/10/07 05:21:37;;;;;;;1.38;1.20;;;7.80;99.90;;;;;;5030519;28;20396;-71
2021/10/07 05:24:03;;;;;;;0.68;0.68;;;7.80;99.90;;;;;;5030734;28;20065;-72
2021/10/07 05:26:29;;;;;;;3.15;1.63;;;7.80;99.90;;;;;;5028210;28;20494;-72
2021/10/07 05:28:54;;;;;;;0.98;0.63;;;7.80;99.90;;;;;;5034829;28;20072;-72
2021/10/07 05:31:19;;;;;;;1.27;0.70;;;7.90;99.90;;;;;;5032187;28;20041;-71
2021/10/07 05:33:45;;;;;;;1.30;1.00;;;7.90;99.90;;;;;;5034891;28;20017;-77
2021/10/07 05:36:11;;;;;;;1.40;1.02;;;7.90;99.90;;;;;;5032147;28;20028;-73
2021/10/07 05:38:37;;;;;;;7.50;2.60;;;7.90;99.90;;;;;;5026322;28;20033;-73
2021/10/07 05:41:03;;;;;;;0.68;0.68;;;7.90;99.90;;;;;;5031163;28;20086;-72
2021/10/07 05:43:28;;;;;;;0.85;0.85;;;7.90;99.90;;;;;;5025920;28;20366;-73
2021/10/07 05:45:54;;;;;;;1.98;1.65;;;8.00;99.90;;;;;;5024675;28;20049;-72
2021/10/07 05:48:23;;;;;;;1.20;0.93;;;8.00;99.90;;;;;;5031002;28;20116;-71
2021/10/07 05:50:48;;;;;;;0.68;0.68;;;7.90;99.90;;;;;;5035943;28;20117;-71
2021/10/07 05:53:14;;;;;;;1.20;0.93;;;8.00;99.90;;;;;;5044757;28;20115;-70
2021/10/07 05:55:40;;;;;;;3.53;1.77;;;8.00;99.90;;;;;;5030876;28;20025;-71
2021/10/07 05:58:05;;;;;;;1.08;0.98;;;8.00;99.90;;;;;;5027274;28;20021;-69
2021/10/07 06:00:31;;;;;;;0.68;0.68;;;8.00;99.90;;;;;;5028964;28;20410;-69
2021/10/07 06:02:56;;;;;;;1.70;0.70;;;7.90;99.90;;;;;;5037565;28;20043;-73
2021/10/07 06:05:21;;;;;;;1.40;1.30;;;7.90;99.90;;;;;;5036992;28;20021;-72
2021/10/07 06:07:47;;;;;;;2.45;1.55;;;8.00;99.90;;;;;;5044201;28;20487;-73
2021/10/07 06:10:14;;;;;;;1.25;0.75;;;8.00;99.90;;;;;;5039497;28;20075;-73
2021/10/07 06:12:41;;;;;;;0.20;0.20;;;8.00;99.90;;;;;;5039597;28;20756;-76
2021/10/07 06:15:07;;;;;;;0.43;0.38;;;8.00;99.90;;;;;;5028564;28;20039;-76
2021/10/07 06:17:33;;;;;;;2.25;1.55;;;8.10;99.90;;;;;;5029027;28;20025;-72
2021/10/07 06:20:16;;;;;;;0.47;0.47;;;8.10;99.90;;;;;;5038579;28;20067;-72
2021/10/07 06:22:42;;;;;;;2.55;1.75;;;8.20;99.90;;;;;;5041517;28;20053;-76
2021/10/07 06:25:07;;;;;;;1.48;0.65;;;8.20;99.90;;;;;;5030336;28;20072;-72
2021/10/07 06:27:33;;;;;;;2.40;1.52;;;8.20;99.90;;;;;;5034057;28;20555;-73
2021/10/07 06:29:59;;;;;;;5.60;2.50;;;8.30;99.90;;;;;;5027696;28;20021;-72
2021/10/07 06:32:24;;;;;;;2.95;1.33;;;8.30;99.90;;;;;;5029698;28;20020;-73
2021/10/07 06:34:49;;;;;;;2.47;1.50;;;8.30;99.90;;;;;;5029761;28;20025;-73
2021/10/07 06:37:15;;;;;;;1.20;1.15;;;8.40;99.90;;;;;;5036764;28;20032;-73
2021/10/07 06:39:40;;;;;;;2.88;1.67;;;8.40;99.90;;;;;;5032284;28;20225;-74
2021/10/07 06:42:06;;;;;;;0.93;0.93;;;8.50;99.90;;;;;;5032864;28;20487;-76
2021/10/07 06:44:31;;;;;;;1.33;1.10;;;8.50;99.90;;;;;;5042188;28;20107;-76
2021/10/07 06:46:57;;;;;;;7.85;2.20;;;8.60;99.90;;;;;;5039469;28;20040;-76
2021/10/07 06:49:22;;;;;;;0.20;0.20;;;8.60;99.90;;;;;;5040691;28;20028;-76
2021/10/07 06:51:48;;;;;;;1.08;1.02;;;8.70;99.90;;;;;;5039200;28;20457;-76
2021/10/07 06:54:13;;;;;;;4.20;2.30;;;8.70;99.90;;;;;;5041136;28;20112;-77
2021/10/07 06:56:39;;;;;;;0.73;0.70;;;8.80;99.90;;;;;;5037173;28;20036;-76
2021/10/07 06:59:05;;;;;;;1.95;1.45;;;8.80;99.90;;;;;;5032388;28;21338;-76
2021/10/07 07:01:30;;;;;;;1.67;1.42;;;8.90;99.90;;;;;;5034765;28;20454;-76
2021/10/07 07:03:57;;;;;;;2.60;1.52;;;9.00;99.90;;;;;;5038873;28;20025;-76
2021/10/07 07:06:24;;;;;;;2.05;1.90;;;9.10;99.90;;;;;;5040791;28;20057;-75
2021/10/07 07:08:50;;;;;;;3.97;1.55;;;9.10;99.90;;;;;;5037632;28;20491;-76
2021/10/07 07:11:16;;;;;;;6.95;2.83;;;9.20;99.90;;;;;;5038106;28;20034;-75
2021/10/07 07:13:43;;;;;;;1.48;1.08;;;9.30;99.90;;;;;;5034630;28;20033;-75
2021/10/07 07:16:09;;;;;;;1.00;0.98;;;9.40;99.90;;;;;;5031688;28;20037;-75
2021/10/07 07:18:35;;;;;;;1.35;1.27;;;9.40;99.90;;;;;;5037170;28;20043;-75
2021/10/07 07:21:00;;;;;;;0.47;0.47;;;9.50;99.90;;;;;;5039475;28;20544;-75
2021/10/07 07:23:26;;;;;;;2.85;1.60;;;9.60;99.90;;;;;;5042590;28;20699;-76
2021/10/07 07:25:51;;;;;;;0.50;0.50;;;9.60;99.90;;;;;;5042852;28;20013;-76
2021/10/07 07:28:17;;;;;;;0.60;0.60;;;9.70;99.90;;;;;;5041172;28;20029;-76
2021/10/07 07:30:42;;;;;;;1.02;0.65;;;9.80;99.90;;;;;;5040461;28;20025;-76
2021/10/07 07:33:08;;;;;;;0.70;0.70;;;9.90;99.90;;;;;;5039073;28;20060;-75
2021/10/07 07:35:34;;;;;;;2.95;1.27;;;10.00;99.90;;;;;;5040872;28;20391;-75
2021/10/07 07:38:01;;;;;;;1.17;0.75;;;10.10;99.90;;;;;;5040357;28;20384;-75
2021/10/07 07:40:27;;;;;;;1.70;0.95;;;10.10;99.90;;;;;;5035351;28;20033;-75
2021/10/07 07:42:53;;;;;;;2.05;1.60;;;10.20;99.90;;;;;;5035307;28;20036;-76
2021/10/07 07:45:18;;;;;;;0.77;0.77;;;10.30;99.90;;;;;;5037400;28;20158;-75
2021/10/07 07:47:44;;;;;;;0.82;0.55;;;10.40;99.90;;;;;;5039288;28;20052;-75
2021/10/07 07:50:11;;;;;;;2.67;0.95;;;10.40;99.90;;;;;;5041962;28;20213;-75
2021/10/07 07:52:37;;;;;;;1.20;1.02;;;10.50;99.90;;;;;;5042435;28;20533;-75
2021/10/07 07:55:06;;;;;;;1.25;1.05;;;10.60;99.90;;;;;;5039571;28;20033;-76
2021/10/07 07:57:32;;;;;;;0.73;0.55;;;10.70;99.90;;;;;;5041220;28;20074;-75
2021/10/07 07:59:58;;;;;;;0.90;0.75;;;10.80;99.90;;;;;;5039532;28;20040;-75
2021/10/07 08:02:23;;;;;;;0.50;0.50;;;10.80;99.90;;;;;;5037499;28;20029;-75
2021/10/07 08:04:51;;;;;;;1.55;1.45;;;10.90;99.90;;;;;;5039165;28;20493;-76
2021/10/07 08:07:16;;;;;;;0.50;0.50;;;11.00;99.90;;;;;;5037686;28;20045;-73
2021/10/07 08:09:44;;;;;;;1.10;1.08;;;11.10;99.90;;;;;;5040242;28;20059;-71
2021/10/07 08:12:12;;;;;;;8.13;0.90;;;11.20;99.90;;;;;;5033187;28;20511;-72
2021/10/07 08:14:42;;;;;;;1.42;0.85;;;11.30;99.90;;;;;;5035010;28;20032;-72
2021/10/07 08:17:08;;;;;;;0.35;0.35;;;11.40;99.90;;;;;;5035023;28;20024;-72
2021/10/07 08:19:34;;;;;;;0.70;0.70;;;11.50;99.90;;;;;;5036856;28;20419;-71
2021/10/07 08:22:00;;;;;;;1.27;0.60;;;11.60;99.90;;;;;;5040065;28;20032;-72
2021/10/07 08:24:26;;;;;;;0.73;0.73;;;11.70;99.90;;;;;;5034992;28;20028;-71
2021/10/07 08:26:52;;;;;;;1.17;0.95;;;11.80;99.90;;;;;;5031751;28;20036;-71
2021/10/07 08:29:18;;;;;;;1.45;0.63;;;11.80;99.90;;;;;;5038615;28;20029;-71
2021/10/07 08:31:43;;;;;;;1.45;1.25;;;11.90;99.90;;;;;;5037930;28;20472;-77
2021/10/07 08:34:09;;;;;;;1.08;0.82;;;12.00;99.90;;;;;;5036226;28;20067;-77
2021/10/07 08:36:36;;;;;;;0.45;0.45;;;12.10;99.90;;;;;;5040457;28;20474;-77
2021/10/07 08:39:01;;;;;;;1.05;0.38;;;12.20;99.90;;;;;;5037715;28;20041;-77
2021/10/07 08:41:27;;;;;;;0.38;0.38;;;12.30;99.90;;;;;;5035524;28;20045;-76
2021/10/07 08:43:53;;;;;;;2.10;0.50;;;12.40;99.90;;;;;;5040024;28;20025;-77
2021/10/07 08:46:20;;;;;;;0.77;0.77;;;12.50;99.90;;;;;;5035253;28;20384;-77
2021/10/07 08:48:46;;;;;;;1.15;0.70;;;12.50;99.90;;;;;;5030024;28;20028;-78
2021/10/07 08:51:12;;;;;;;0.73;0.73;;;12.60;99.90;;;;;;5033490;28;20032;-75
2021/10/07 08:53:37;;;;;;;0.90;0.90;;;12.70;99.90;;;;;;5034343;28;20025;-76
2021/10/07 08:56:05;;;;;;;0.82;0.63;;;12.80;99.90;;;;;;5037367;28;20036;-78
2021/10/07 08:58:31;;;;;;;0.77;0.73;;;12.80;99.90;;;;;;5033567;28;20037;-79
2021/10/07 09:00:57;;;;;;;3.20;1.27;;;12.90;99.90;;;;;;5035020;28;20075;-73
2021/10/07 09:03:24;;;;;;;0.80;0.80;;;13.00;99.90;;;;;;5039274;28;20033;-73
2021/10/07 09:06:08;;;;;;;1.13;1.05;;;13.10;99.90;;;;;;5038898;28;20029;-73
2021/10/07 09:08:48;;;;;;;1.10;1.08;;;13.20;99.90;;;;;;5036528;28;20155;-73
2021/10/07 09:11:28;;;;;;;0.52;0.52;;;13.20;99.90;;;;;;5040570;28;20017;-73
2021/10/07 09:14:05;;;;;;;0.43;0.30;;;13.30;99.90;;;;;;5040150;28;20108;-72
2021/10/07 09:16:46;;;;;;;4.95;0.88;;;13.40;99.90;;;;;;5037847;28;20632;-73
2021/10/07 09:19:20;;;;;;;0.95;0.80;;;13.50;99.90;;;;;;5036408;28;20084;-72
2021/10/07 09:21:49;;;;;;;1.15;0.90;;;13.50;99.90;;;;;;5036364;28;20439;-72
2021/10/07 09:24:37;;;;;;;1.88;1.20;;;13.70;99.90;;;;;;5036456;28;20037;-72
2021/10/07 09:27:06;;;;;;;0.45;0.45;;;13.70;99.90;;;;;;5037868;28;20539;-74
2021/10/07 09:29:56;;;;;;;6.43;1.20;;;13.80;99.90;;;;;;5036056;28;20037;-73
2021/10/07 09:32:36;;;;;;;0.20;0.20;;;13.90;99.90;;;;;;5039766;28;20029;-72
2021/10/07 09:35:05;;;;;;;0.47;0.47;;;14.00;99.90;;;;;;5040428;28;20503;-72
2021/10/07 09:37:38;;;;;;;0.35;0.35;;;14.10;99.90;;;;;;5037791;28;20504;-72
2021/10/07 09:40:16;;;;;;;0.68;0.52;;;14.20;99.90;;;;;;5032918;28;20033;-71
2021/10/07 09:42:48;;;;;;;0.30;0.30;;;14.30;99.90;;;;;;5037957;28;20025;-72
2021/10/07 09:45:17;;;;;;;0.52;0.52;;;14.40;99.90;;;;;;5040072;28;20167;-77
2021/10/07 09:47:48;;;;;;;0.38;0.38;;;14.40;99.90;;;;;;5038609;28;20017;-71
2021/10/07 09:50:17;;;;;;;0.75;0.75;;;14.60;99.90;;;;;;5040861;28;20031;-71
2021/10/07 09:52:45;;;;;;;1.15;0.60;;;14.60;99.90;;;;;;5040917;28;20353;-71
2021/10/07 09:55:22;;;;;;;0.22;0.22;;;14.80;99.90;;;;;;5042390;28;20459;-71
2021/10/07 09:57:53;;;;;;;0.17;0.17;;;14.90;99.90;;;;;;5042885;28;20021;-72
2021/10/07 10:00:20;;;;;;;0.35;0.32;;;15.00;99.90;;;;;;5043587;28;20056;-70
2021/10/07 10:02:46;;;;;;;1.15;0.70;;;15.10;99.90;;;;;;5041791;28;20369;-72
2021/10/07 10:05:15;;;;;;;0.85;0.38;;;15.20;99.90;;;;;;5041301;28;20025;-72
2021/10/07 10:07:42;;;;;;;0.47;0.38;;;15.30;99.90;;;;;;5038795;28;20024;-72
2021/10/07 10:10:09;;;;;;;0.43;0.43;;;15.30;99.90;;;;;;5036166;28;20033;-72
2021/10/07 10:12:35;;;;;;;1.00;0.52;;;15.40;99.90;;;;;;5036541;28;20066;-72
2021/10/07 10:15:02;;;;;;;0.65;0.65;;;15.50;99.90;;;;;;5041378;28;20025;-71
2021/10/07 10:17:28;;;;;;;0.25;0.25;;;15.50;99.90;;;;;;5039261;28;20017;-71
2021/10/07 10:19:56;;;;;;;0.45;0.20;;;15.70;99.90;;;;;;5037186;28;20060;-72
2021/10/07 10:22:23;;;;;;;6.00;1.45;;;15.80;99.90;;;;;;5039999;28;20029;-72
2021/10/07 10:24:50;;;;;;;0.28;0.28;;;15.90;99.90;;;;;;5043286;28;20376;-71
2021/10/07 10:27:16;;;;;;;0.32;0.32;;;16.00;99.50;;;;;;5039270;28;20025;-72
2021/10/07 10:29:42;;;;;;;0.50;0.50;;;16.00;99.40;;;;;;5039674;28;20523;-71
2021/10/07 10:32:11;;;;;;;1.27;0.98;;;16.20;98.00;;;;;;5038047;28;20050;-71
2021/10/07 10:34:44;;;;;;;0.30;0.30;;;16.20;97.50;;;;;;5040672;28;20060;-72
2021/10/07 10:37:12;;;;;;;0.20;0.10;;;16.40;99.10;;;;;;5044304;28;20032;-71
2021/10/07 10:39:44;;;;;;;0.85;0.40;;;16.40;98.40;;;;;;5044249;28;20095;-72
2021/10/07 10:42:16;;;;;;;0.35;0.35;;;16.50;98.30;;;;;;5046738;28;20027;-71
2021/10/07 10:44:50;;;;;;;0.10;0.10;;;16.60;96.40;;;;;;5046443;28;20550;-72
2021/10/07 10:47:20;;;;;;;0.30;0.30;;;16.60;94.30;;;;;;5040723;28;20021;-72
2021/10/07 10:49:54;;;;;;;0.93;0.40;;;16.70;93.60;;;;;;5032163;28;20025;-72
2021/10/07 10:52:27;;;;;;;10.20;0.63;;;16.80;94.40;;;;;;5032855;28;20017;-72
2021/10/07 10:55:03;;;;;;;0.88;0.88;;;16.90;93.40;;;;;;5038545;28;20040;-72
2021/10/07 10:57:32;;;;;;;0.20;0.20;;;17.20;92.50;;;;;;5041029;28;20041;-72
2021/10/07 11:00:08;;;;;;;0.15;0.15;;;17.40;92.60;;;;;;5049592;28;20029;-72
2021/10/07 11:02:35;;;;;;;0.75;0.75;;;17.70;91.90;;;;;;5032711;28;20086;-73
2021/10/07 11:05:19;;;;;;;0.55;0.40;;;17.90;93.00;;;;;;5048208;28;20095;-73
2021/10/07 11:07:46;;;;;;;0.20;0.20;;;18.20;93.10;;;;;;5036853;28;20488;-72
2021/10/07 11:10:29;;;;;;;0.28;0.15;;;18.40;90.80;;;;;;5030507;28;20026;-73
2021/10/07 11:13:00;;;;;;;0.10;0.10;;;18.60;88.20;;;;;;5032943;28;20484;-73
2021/10/07 11:15:29;;;;;;;0.33;0.33;;;18.80;87.60;;;;;;5041792;28;20057;-72
2021/10/07 11:17:57;;;;;;;1.15;0.60;;;19.00;84.20;;;;;;5045153;28;20044;-73
2021/10/07 11:20:31;;;;;;;0.13;0.13;;;19.20;84.60;;;;;;5044337;28;20057;-72
2021/10/07 11:23:09;;;;;;;0.40;0.40;;;19.40;82.60;;;;;;5047531;28;20024;-73
2021/10/07 11:25:38;;;;;;;0.20;0.20;;;19.60;80.20;;;;;;5037822;28;20021;-73
2021/10/07 11:28:04;;;;;;;0.10;0.10;;;20.00;80.20;;;;;;5027999;28;20017;-72
2021/10/07 11:30:33;;;;;;;0.22;0.22;;;20.30;79.10;;;;;;5038526;28;20072;-73
2021/10/07 11:33:00;;;;;;;0.20;0.20;;;20.60;74.10;;;;;;5035647;28;20057;-73
2021/10/07 11:35:27;;;;;;;0.65;0.40;;;20.90;75.00;;;;;;5035774;28;20029;-73
2021/10/07 11:37:52;;;;;;;0.20;0.20;;;21.30;73.40;;;;;;5037838;28;20037;-72
2021/10/07 11:40:31;;;;;;;1.92;0.68;;;21.50;70.70;;;;;;5035765;28;20445;-72
2021/10/07 11:43:19;;;;;;;0.20;0.20;;;21.60;68.20;;;;;;5031110;28;20061;-72
2021/10/07 11:45:51;;;;;;;0.17;0.17;;;21.80;65.70;;;;;;5048848;28;20032;-72
2021/10/07 11:48:17;;;;;;;0.20;0.20;;;22.00;66.90;;;;;;5037807;28;20029;-71
2021/10/07 11:50:49;;;;;;;0.22;0.22;;;22.10;67.90;;;;;;5035069;28;20384;-73
2021/10/07 11:53:39;;;;;;;0.28;0.28;;;22.30;65.40;;;;;;5035398;28;20100;-72
2021/10/07 11:56:17;;;;;;;0.40;0.40;;;22.50;66.10;;;;;;5044767;28;20112;-72
2021/10/07 11:58:53;;;;;;;0.90;0.52;;;22.50;64.90;;;;;;5038004;28;20109;-72
2021/10/07 12:01:19;;;;;;;0.30;0.30;;;22.50;65.70;;;;;;5043333;28;20399;-72
2021/10/07 12:03:44;;;;;;;0.10;0.10;;;22.40;65.10;;;;;;5038441;28;20074;-72
2021/10/07 12:06:13;;;;;;;2.83;0.35;;;22.20;65.00;;;;;;5048350;28;20182;-73
2021/10/07 12:08:45;;;;;;;0.17;0.17;;;22.10;65.50;;;;;;5038017;28;20030;-73
2021/10/07 12:11:25;;;;;;;0.68;0.68;;;22.00;66.00;;;;;;5033716;28;20021;-72
2021/10/07 12:13:53;;;;;;;0.35;0.35;;;21.90;66.40;;;;;;5045048;28;20480;-72
2021/10/07 12:16:21;;;;;;;0.30;0.28;;;21.70;64.70;;;;;;5036445;28;20041;-72
2021/10/07 12:18:54;;;;;;;0.45;0.45;;;21.50;68.30;;;;;;5033654;28;20040;-73
2021/10/07 12:21:25;;;;;;;0.68;0.68;;;21.30;68.50;;;;;;5029639;28;20112;-72
2021/10/07 12:23:55;;;;;;;0.22;0.22;;;21.30;69.30;;;;;;5042669;28;20036;-73
2021/10/07 12:26:36;;;;;;;0.60;0.55;;;21.30;66.30;;;;;;5038020;28;20091;-73
2021/10/07 12:29:07;;;;;;;2.47;0.57;;;21.30;68.40;;;;;;5042077;28;20037;-74
2021/10/07 12:31:33;;;;;;;3.83;1.08;;;21.20;65.80;;;;;;5040880;28;20044;-73
2021/10/07 12:34:04;;;;;;;0.00;0.00;;;21.00;68.40;;;;;;5045826;28;20068;-72
2021/10/07 12:36:39;;;;;;;0.45;0.40;;;20.90;67.90;;;;;;5039882;28;20112;-71
2021/10/07 12:39:27;;;;;;;5.05;0.55;;;20.90;66.90;;;;;;5043831;28;20086;-72
2021/10/07 12:42:03;;;;;;;1.02;0.73;;;21.00;70.60;;;;;;5031739;28;20037;-72
2021/10/07 12:44:32;;;;;;;0.47;0.25;;;21.20;71.30;;;;;;5046364;28;20121;-72
2021/10/07 12:47:00;;;;;;;0.57;0.20;;;21.40;70.30;;;;;;5043284;28;20061;-72
2021/10/07 12:49:38;;;;;;;0.43;0.30;;;21.50;68.90;;;;;;5029271;28;20025;-71
2021/10/07 12:52:11;;;;;;;0.13;0.13;;;21.70;66.20;;;;;;5031289;28;20033;-70
2021/10/07 12:54:37;;;;;;;0.75;0.68;;;22.10;64.40;;;;;;5047922;28;20482;-71
2021/10/07 12:57:03;;;;;;;0.13;0.13;;;22.50;62.50;;;;;;5046753;28;20035;-72
2021/10/07 12:59:28;;;;;;;0.20;0.20;;;22.80;62.10;;;;;;5044561;28;20029;-72
2021/10/07 13:01:54;;;;;;;0.20;0.20;;;23.10;62.50;;;;;;5043910;28;20118;-70